Time;durP1;ratioP1;P1;durP2;ratioP2;P2;SDS_P1;SDS_P2;PMS_P1;PMS_P2;Temp;Humidity;BMP_temperature;BMP_pressure;BME280_temperature;BME280_humidity;BME280_pressure;Samples;Min_cycle;Max_cycle;Signal;HPM_P1;HPM_P2
2022/02/09 00:04:19;;;;;;;1.05;0.95;;;8.30;99.90;;;;;;4975051;28;20223;-77
2022/02/09 00:09:13;;;;;;;1.73;1.63;;;8.30;99.90;;;;;;4974434;28;20192;-77
2022/02/09 00:11:52;;;;;;;1.33;1.23;;;8.40;99.90;;;;;;4973269;28;20240;-76
2022/02/09 00:19:27;;;;;;;2.47;2.27;;;8.20;99.90;;;;;;4974234;28;20221;-78
2022/02/09 01:56:41;;;;;;;2.38;2.20;;;8.20;99.90;;;;;;4962073;28;20199;-76
2022/02/09 01:59:07;;;;;;;6.90;1.75;;;8.20;99.90;;;;;;4977016;28;20196;-78
2022/02/09 02:01:34;;;;;;;5.80;3.03;;;8.30;99.90;;;;;;4976966;28;20215;-76
2022/02/09 02:04:00;;;;;;;3.30;2.00;;;8.30;99.90;;;;;;4976805;28;20211;-77
2022/02/09 02:06:26;;;;;;;1.93;1.83;;;8.30;99.90;;;;;;4977390;28;20200;-77
2022/02/09 02:08:53;;;;;;;1.80;1.70;;;8.30;99.90;;;;;;4976897;28;20259;-77
2022/02/09 02:11:28;;;;;;;3.05;2.35;;;8.20;99.90;;;;;;4977099;28;20181;-76
2022/02/09 02:19:24;;;;;;;2.50;2.20;;;8.20;99.90;;;;;;4957622;28;20200;-76
2022/02/09 03:12:59;;;;;;;2.35;2.15;;;7.80;99.90;;;;;;4975570;28;20171;-76
2022/02/09 03:15:46;;;;;;;3.65;2.53;;;7.90;99.90;;;;;;4975882;28;20230;-78
2022/02/09 03:18:49;;;;;;;2.15;2.05;;;7.90;99.90;;;;;;4975640;28;20175;-77
2022/02/09 03:50:27;;;;;;;2.13;1.80;;;7.70;99.90;;;;;;4974825;28;20562;-75
2022/02/09 03:53:11;;;;;;;3.35;2.08;;;7.80;99.90;;;;;;4974775;28;20173;-76
2022/02/09 03:58:03;;;;;;;1.80;1.70;;;7.80;99.90;;;;;;4961088;28;20653;-76
2022/02/09 04:00:34;;;;;;;3.37;2.23;;;7.70;99.90;;;;;;4975190;28;20231;-76
2022/02/09 04:03:00;;;;;;;3.00;2.45;;;7.70;99.90;;;;;;4974748;28;20182;-74
2022/02/09 04:05:27;;;;;;;3.85;2.30;;;7.70;99.90;;;;;;4975180;28;20258;-76
2022/02/09 04:07:52;;;;;;;2.10;2.00;;;7.70;99.90;;;;;;4974408;28;20163;-76
2022/02/09 04:10:26;;;;;;;2.90;2.63;;;7.70;99.90;;;;;;4974930;28;20688;-76
2022/02/09 04:13:11;;;;;;;2.28;1.80;;;7.70;99.90;;;;;;4974573;28;20591;-74
2022/02/09 05:25:52;;;;;;;2.55;2.38;;;7.50;99.90;;;;;;4971965;28;20217;-75
2022/02/09 05:28:20;;;;;;;4.07;1.60;;;7.50;99.90;;;;;;4978317;28;20168;-75
2022/02/09 05:30:48;;;;;;;2.95;2.38;;;7.50;99.90;;;;;;4979992;28;20168;-75
2022/02/09 05:33:15;;;;;;;4.32;3.15;;;7.50;99.90;;;;;;4978980;28;20195;-76
2022/02/09 05:35:44;;;;;;;2.53;2.33;;;7.60;99.90;;;;;;4978354;28;20179;-74
2022/02/09 05:38:13;;;;;;;2.60;2.35;;;7.60;99.90;;;;;;4977951;28;20599;-76
2022/02/09 05:40:40;;;;;;;3.47;3.17;;;7.60;99.90;;;;;;4978090;28;20182;-76
2022/02/09 05:43:08;;;;;;;3.80;2.60;;;7.60;99.90;;;;;;4977731;28;20210;-77
2022/02/09 05:45:55;;;;;;;1.73;1.60;;;7.70;99.90;;;;;;4977524;28;20709;-76
2022/02/09 05:53:26;;;;;;;5.00;2.00;;;7.80;99.90;;;;;;4977394;28;20188;-76
2022/02/09 05:56:05;;;;;;;4.20;2.55;;;7.80;99.90;;;;;;4975829;28;20543;-76
2022/02/09 06:00:57;;;;;;;2.43;2.23;;;7.80;99.90;;;;;;4976994;28;20655;-75
2022/02/09 06:03:23;;;;;;;5.40;2.22;;;7.80;99.90;;;;;;4977022;28;20218;-75
2022/02/09 06:05:49;;;;;;;6.67;2.83;;;7.80;99.90;;;;;;4976911;28;20289;-75
2022/02/09 06:08:15;;;;;;;2.20;2.07;;;7.90;99.90;;;;;;4977041;28;20408;-75
2022/02/09 06:10:47;;;;;;;3.45;2.08;;;7.90;99.90;;;;;;4976458;28;20179;-75
2022/02/09 06:13:26;;;;;;;2.33;2.15;;;8.00;99.90;;;;;;4965027;28;20241;-75
2022/02/09 06:21:07;;;;;;;2.70;2.47;;;8.00;99.90;;;;;;4965354;28;20198;-77
2022/02/09 06:23:34;;;;;;;2.00;1.90;;;8.00;99.90;;;;;;4977036;28;20255;-77
2022/02/09 06:26:04;;;;;;;1.83;1.63;;;8.00;99.90;;;;;;4976564;28;20257;-77
2022/02/09 06:28:30;;;;;;;2.20;2.00;;;8.00;99.90;;;;;;4976296;28;20207;-74
2022/02/09 06:30:57;;;;;;;2.10;2.00;;;8.00;99.90;;;;;;4976351;28;20224;-75
2022/02/09 06:33:22;;;;;;;1.83;1.73;;;8.00;99.90;;;;;;4976168;28;20266;-75
2022/02/09 06:35:49;;;;;;;1.80;1.70;;;8.00;99.90;;;;;;4976349;28;20300;-74
2022/02/09 06:38:16;;;;;;;2.08;1.98;;;8.00;99.90;;;;;;4976235;28;20179;-73
2022/02/09 06:40:44;;;;;;;2.47;2.28;;;8.00;99.90;;;;;;4976244;28;20167;-74
2022/02/09 06:43:11;;;;;;;4.05;2.28;;;8.00;99.90;;;;;;4976136;28;20307;-72
2022/02/09 06:45:39;;;;;;;6.80;3.10;;;8.10;99.90;;;;;;4968242;28;20193;-71
2022/02/09 06:48:16;;;;;;;1.98;1.88;;;8.10;99.90;;;;;;4965372;28;20543;-71
2022/02/09 06:50:48;;;;;;;5.13;1.63;;;8.00;99.90;;;;;;4975919;28;20179;-73
2022/02/09 06:55:55;;;;;;;2.33;1.83;;;8.10;99.90;;;;;;4957048;29;20180;-73
2022/02/09 06:58:43;;;;;;;2.08;1.98;;;8.20;99.90;;;;;;4971199;28;20181;-70
2022/02/09 07:01:09;;;;;;;3.85;2.67;;;8.20;99.90;;;;;;4956716;29;20643;-69
2022/02/09 07:03:35;;;;;;;6.13;3.25;;;8.20;99.90;;;;;;4956793;28;20179;-68
2022/02/09 07:06:00;;;;;;;2.63;2.17;;;8.30;99.90;;;;;;4956548;29;20200;-69
2022/02/09 07:08:29;;;;;;;1.40;1.30;;;8.30;99.90;;;;;;4956337;28;20228;-69
2022/02/09 07:10:55;;;;;;;1.52;1.25;;;8.30;99.90;;;;;;4957063;28;20180;-69
2022/02/09 07:13:21;;;;;;;1.77;1.57;;;8.40;99.90;;;;;;4956083;28;20173;-69
2022/02/09 07:15:51;;;;;;;4.73;1.90;;;8.40;99.90;;;;;;4956456;28;20487;-70
2022/02/09 07:18:17;;;;;;;6.18;2.10;;;8.40;99.90;;;;;;4955856;28;20175;-70
2022/02/09 07:20:59;;;;;;;2.63;2.17;;;8.40;99.90;;;;;;4971326;28;20188;-69
2022/02/09 07:28:37;;;;;;;1.88;1.75;;;8.40;99.90;;;;;;4955833;28;20219;-69
2022/02/09 07:31:04;;;;;;;3.55;1.83;;;8.70;99.90;;;;;;4956138;28;20172;-69
2022/02/09 07:33:30;;;;;;;3.10;2.00;;;8.90;99.90;;;;;;4956410;28;20165;-69
2022/02/09 07:35:56;;;;;;;1.90;1.57;;;9.20;99.90;;;;;;4956021;29;20253;-69
2022/02/09 07:38:22;;;;;;;1.70;1.60;;;9.70;99.90;;;;;;4955777;28;20187;-69
2022/02/09 07:40:51;;;;;;;4.63;1.57;;;10.10;99.90;;;;;;4956079;28;20235;-69
2022/02/09 07:43:24;;;;;;;1.30;1.30;;;10.50;99.90;;;;;;4956019;28;20776;-69
2022/02/09 07:54:01;;;;;;;2.60;2.30;;;11.50;99.90;;;;;;4959356;28;20420;-69
2022/02/09 07:56:29;;;;;;;3.33;2.13;;;11.60;99.90;;;;;;4975027;28;20189;-70
2022/02/09 07:58:56;;;;;;;9.10;2.73;;;11.90;99.90;;;;;;4974805;28;20447;-70
2022/02/09 08:01:22;;;;;;;5.83;1.90;;;12.10;99.90;;;;;;4975066;28;20411;-69
2022/02/09 08:03:48;;;;;;;2.33;2.13;;;12.50;99.90;;;;;;4975199;28;20409;-68
2022/02/09 08:06:14;;;;;;;1.87;1.60;;;12.90;99.90;;;;;;4974871;28;20425;-70
2022/02/09 08:08:43;;;;;;;1.90;1.80;;;13.40;99.90;;;;;;4974451;28;20412;-70
2022/02/09 08:11:14;;;;;;;2.33;2.13;;;14.10;99.90;;;;;;4974970;28;20405;-70
2022/02/09 08:29:27;;;;;;;2.33;2.13;;;16.80;95.30;;;;;;4973577;28;20536;-71
2022/02/09 08:32:36;;;;;;;2.10;1.90;;;17.30;94.40;;;;;;4975007;28;20231;-70
2022/02/09 08:34:44;;;;;;;2.10;1.90;;;17.90;93.40;;;;;;4974515;28;20737;-70
2022/02/09 08:37:09;;;;;;;2.00;1.63;;;18.50;92.30;;;;;;4974433;28;20424;-70
2022/02/09 08:39:36;;;;;;;2.17;2.00;;;18.90;91.10;;;;;;4974078;28;20193;-70
2022/02/09 08:42:02;;;;;;;1.43;1.33;;;19.40;90.50;;;;;;4974711;28;20247;-70
2022/02/09 08:44:28;;;;;;;1.90;1.80;;;19.90;89.10;;;;;;4973283;28;20427;-71
2022/02/09 08:46:54;;;;;;;2.00;1.90;;;20.30;86.80;;;;;;4974620;28;20882;-71
2022/02/09 08:49:19;;;;;;;1.80;1.70;;;20.80;85.20;;;;;;4973982;28;20535;-71
2022/02/09 08:51:45;;;;;;;1.87;1.77;;;21.00;83.50;;;;;;4974481;28;20175;-70
2022/02/09 08:54:12;;;;;;;1.53;1.43;;;21.20;83.10;;;;;;4966869;28;20189;-70
2022/02/09 08:56:38;;;;;;;1.70;1.60;;;21.50;82.80;;;;;;4955258;28;20197;-71
2022/02/09 08:59:05;;;;;;;2.80;1.90;;;21.70;79.60;;;;;;4954740;28;20434;-70
2022/02/09 09:04:03;;;;;;;3.33;2.30;;;21.10;79.40;;;;;;4955294;28;20388;-70
2022/02/09 09:06:30;;;;;;;3.37;1.83;;;21.10;82.20;;;;;;4954826;28;20388;-69
2022/02/09 10:31:36;;;;;;;0.93;0.90;;;21.40;76.50;;;;;;4976961;28;20549;-70
2022/02/09 10:33:56;;;;;;;1.83;1.50;;;21.40;75.90;;;;;;4976427;28;20405;-71
2022/02/09 10:36:22;;;;;;;1.20;1.10;;;21.30;76.00;;;;;;4976672;28;20781;-71
2022/02/09 10:38:50;;;;;;;2.50;0.93;;;21.10;76.60;;;;;;4976278;28;20406;-68
2022/02/09 10:41:28;;;;;;;2.43;1.30;;;21.10;76.50;;;;;;4991703;28;20745;-67
2022/02/09 10:44:08;;;;;;;0.93;0.93;;;21.00;76.60;;;;;;4976595;28;20506;-67
2022/02/09 10:46:46;;;;;;;0.83;0.83;;;20.90;77.10;;;;;;4975579;28;20390;-69
2022/02/09 10:49:13;;;;;;;0.90;0.90;;;21.10;76.90;;;;;;4974571;28;20932;-68
2022/02/09 10:52:04;;;;;;;0.83;0.83;;;21.30;75.70;;;;;;4976589;28;20389;-69
2022/02/09 10:54:31;;;;;;;1.67;0.93;;;21.10;76.70;;;;;;4976398;28;20440;-68
2022/02/09 10:56:59;;;;;;;1.23;1.13;;;20.90;75.90;;;;;;4991075;28;20393;-68
2022/02/09 10:59:27;;;;;;;1.87;1.40;;;20.80;76.10;;;;;;4975712;28;20400;-68
2022/02/09 11:01:54;;;;;;;2.17;1.37;;;20.50;76.00;;;;;;4976147;28;20910;-68
2022/02/09 11:04:20;;;;;;;2.70;1.90;;;20.20;76.60;;;;;;4974757;28;20416;-68
2022/02/09 11:06:48;;;;;;;1.73;1.60;;;20.00;77.80;;;;;;4976056;28;20437;-70
2022/02/09 11:09:16;;;;;;;1.20;1.10;;;19.90;77.00;;;;;;4975512;28;20432;-71
2022/02/09 11:11:43;;;;;;;4.03;1.83;;;19.80;78.40;;;;;;4975773;28;20459;-71
2022/02/09 11:14:15;;;;;;;1.10;1.00;;;19.80;78.10;;;;;;4976162;28;20402;-71
2022/02/09 11:16:42;;;;;;;2.63;1.30;;;19.80;78.20;;;;;;4976183;28;20401;-70
2022/02/09 11:19:09;;;;;;;1.53;1.37;;;19.70;78.60;;;;;;4975456;28;20452;-70
2022/02/09 11:21:37;;;;;;;1.90;1.10;;;19.80;78.40;;;;;;4975746;28;20453;-69
2022/02/09 11:24:18;;;;;;;2.00;1.00;;;19.70;77.80;;;;;;4975813;28;20458;-70
2022/02/09 11:27:10;;;;;;;1.77;1.40;;;19.40;78.60;;;;;;4974360;28;20391;-70
2022/02/09 11:29:58;;;;;;;1.30;1.20;;;18.90;79.80;;;;;;4975221;28;20402;-71
2022/02/09 11:32:32;;;;;;;1.73;1.30;;;18.30;81.10;;;;;;4975677;28;20794;-70
2022/02/09 11:38:12;;;;;;;1.37;1.27;;;16.90;83.70;;;;;;4975476;28;20763;-69
2022/02/09 11:43:41;;;;;;;0.87;0.87;;;15.10;89.60;;;;;;4975535;28;20832;-71
2022/02/09 12:00:03;;;;;;;0.73;0.70;;;13.80;92.40;;;;;;4974433;28;20461;-70
2022/02/09 12:19:14;;;;;;;1.00;1.00;;;13.50;93.30;;;;;;4955103;28;21025;-72
2022/02/09 12:24:34;;;;;;;1.93;1.60;;;13.40;93.50;;;;;;4958035;28;20423;-72
2022/02/09 12:27:12;;;;;;;2.10;1.53;;;13.40;93.80;;;;;;4955337;29;20426;-73
2022/02/09 12:29:43;;;;;;;5.27;4.20;;;13.40;94.20;;;;;;4954890;28;20441;-72
2022/02/09 12:32:14;;;;;;;2.87;2.60;;;13.30;93.70;;;;;;4956023;28;20389;-72
2022/02/09 12:34:43;;;;;;;1.40;1.30;;;13.30;93.60;;;;;;4963594;28;20428;-71
2022/02/09 12:37:16;;;;;;;1.10;1.10;;;13.30;93.00;;;;;;4953962;29;20483;-72
2022/02/09 12:39:58;;;;;;;1.33;1.23;;;13.20;93.10;;;;;;4954868;28;20911;-71
2022/02/09 12:42:51;;;;;;;1.60;1.50;;;13.20;93.50;;;;;;4955268;29;20511;-71
2022/02/09 12:45:19;;;;;;;4.17;1.30;;;13.20;93.40;;;;;;4953222;28;20824;-71
2022/02/09 12:47:50;;;;;;;1.50;1.30;;;13.20;93.60;;;;;;4954743;29;20422;-71
2022/02/09 12:50:40;;;;;;;1.17;1.10;;;13.20;93.60;;;;;;4955032;28;20471;-74
2022/02/09 12:53:07;;;;;;;1.27;1.17;;;13.20;93.70;;;;;;4955235;29;20542;-73
2022/02/09 12:55:38;;;;;;;1.63;1.03;;;13.20;93.60;;;;;;4973653;28;20449;-73
2022/02/09 12:58:08;;;;;;;1.50;1.37;;;13.20;93.80;;;;;;4974123;28;20769;-71
2022/02/09 13:00:42;;;;;;;1.63;1.53;;;13.20;93.90;;;;;;4974439;28;20418;-73
2022/02/09 13:03:11;;;;;;;1.20;1.20;;;13.30;93.90;;;;;;4974470;28;20422;-72
2022/02/09 13:05:56;;;;;;;1.13;1.03;;;13.30;94.00;;;;;;4969167;28;20407;-71
2022/02/09 13:08:28;;;;;;;2.30;1.30;;;13.30;93.70;;;;;;4954543;28;20422;-71
2022/02/09 13:13:41;;;;;;;1.83;1.70;;;13.20;93.80;;;;;;4959084;28;20419;-71
2022/02/09 13:16:14;;;;;;;1.73;1.60;;;13.10;94.20;;;;;;4958869;28;20546;-71
2022/02/09 13:19:01;;;;;;;2.10;1.87;;;13.10;94.20;;;;;;4973094;28;20485;-70
2022/02/09 13:25:05;;;;;;;1.17;1.07;;;13.30;94.30;;;;;;4958524;29;20417;-69
2022/02/09 14:04:51;;;;;;;1.10;1.00;;;13.60;94.20;;;;;;4977504;28;20418;-69
2022/02/09 14:58:14;;;;;;;1.60;1.00;;;13.80;94.50;;;;;;4975952;28;20399;-69
2022/02/09 15:00:51;;;;;;;0.80;0.80;;;13.70;94.40;;;;;;4975997;28;20404;-70
2022/02/09 15:03:37;;;;;;;0.63;0.63;;;13.80;94.50;;;;;;4976209;28;20765;-70
2022/02/09 15:08:48;;;;;;;0.80;0.80;;;13.60;94.40;;;;;;4975551;28;20949;-71
2022/02/09 15:11:28;;;;;;;1.03;0.87;;;13.60;94.60;;;;;;4974666;28;20418;-73
2022/02/09 15:16:29;;;;;;;1.17;1.07;;;13.50;94.70;;;;;;4976014;28;20514;-71
2022/02/09 15:24:29;;;;;;;1.63;1.20;;;13.40;95.00;;;;;;4975629;28;20749;-71
2022/02/09 15:26:57;;;;;;;1.13;0.90;;;13.30;95.10;;;;;;4975927;28;20413;-71
2022/02/09 15:29:23;;;;;;;2.37;0.87;;;13.30;95.20;;;;;;4975258;28;20437;-69
2022/02/09 15:31:53;;;;;;;1.33;1.23;;;13.30;95.50;;;;;;4975777;28;20464;-72
2022/02/09 15:34:27;;;;;;;1.43;1.20;;;13.20;95.80;;;;;;4973835;28;20692;-71
2022/02/09 15:39:25;;;;;;;1.33;1.23;;;13.00;96.40;;;;;;4975186;28;20466;-70
2022/02/09 16:09:24;;;;;;;1.43;1.33;;;12.30;98.30;;;;;;4973641;28;20408;-69
2022/02/09 16:20:06;;;;;;;1.47;1.30;;;12.00;98.90;;;;;;4974426;28;20196;-69
2022/02/09 16:22:33;;;;;;;2.27;1.57;;;12.00;98.90;;;;;;4974362;28;20420;-71
2022/02/09 16:46:40;;;;;;;2.00;1.60;;;11.20;99.90;;;;;;4973950;28;20235;-69
2022/02/09 16:49:13;;;;;;;2.88;2.05;;;11.10;99.90;;;;;;4973608;28;20194;-69
2022/02/09 16:51:56;;;;;;;2.28;2.00;;;11.10;99.90;;;;;;4974584;28;20150;-69
2022/02/09 17:08:33;;;;;;;2.53;2.33;;;10.70;99.90;;;;;;4973634;28;20175;-70
2022/02/09 17:18:54;;;;;;;1.93;1.23;;;10.40;99.90;;;;;;4973472;28;20587;-70
2022/02/09 17:21:22;;;;;;;2.28;2.17;;;10.30;99.90;;;;;;4973992;28;20180;-69
2022/02/09 17:23:49;;;;;;;6.95;4.03;;;10.20;99.90;;;;;;4973840;28;20192;-69
2022/02/09 17:26:15;;;;;;;4.55;3.30;;;10.20;99.90;;;;;;4972733;28;20215;-70
2022/02/09 17:28:45;;;;;;;2.95;2.03;;;10.10;99.90;;;;;;4973708;28;20196;-70
2022/02/09 17:57:48;;;;;;;2.50;2.30;;;9.70;99.90;;;;;;4957340;29;20179;-75
2022/02/09 18:00:16;;;;;;;2.20;2.10;;;9.70;99.90;;;;;;4958140;28;20189;-74
2022/02/09 18:02:44;;;;;;;2.75;2.47;;;9.60;99.90;;;;;;4977323;28;20160;-71
2022/02/09 18:05:17;;;;;;;1.92;1.83;;;9.60;99.90;;;;;;4976674;28;20201;-71
2022/02/09 18:07:47;;;;;;;2.60;2.40;;;9.50;99.90;;;;;;4957474;28;20235;-74
2022/02/09 18:10:27;;;;;;;6.25;4.07;;;9.40;99.90;;;;;;4956780;28;20196;-74
2022/02/09 18:13:19;;;;;;;4.68;3.38;;;9.30;99.90;;;;;;4977344;28;20176;-72
2022/02/09 18:31:39;;;;;;;6.60;3.35;;;8.40;99.90;;;;;;4978043;28;20196;-75
2022/02/09 19:04:23;;;;;;;5.03;3.80;;;7.40;99.90;;;;;;4976086;28;20201;-70
2022/02/09 19:31:26;;;;;;;5.30;4.53;;;6.80;99.90;;;;;;4955425;29;20231;-72
2022/02/09 19:52:02;;;;;;;8.50;4.40;;;6.50;99.90;;;;;;4964189;28;20633;-71
2022/02/09 19:54:40;;;;;;;3.05;2.75;;;6.50;99.90;;;;;;4962414;28;20378;-72
2022/02/09 19:57:06;;;;;;;3.85;3.55;;;6.50;99.90;;;;;;4992785;28;20526;-72
2022/02/09 19:59:35;;;;;;;3.75;3.45;;;6.50;99.90;;;;;;4963808;28;20232;-72
2022/02/09 20:02:01;;;;;;;7.72;3.08;;;6.50;99.90;;;;;;4962808;28;20306;-72
2022/02/09 20:04:26;;;;;;;3.90;2.77;;;6.50;99.90;;;;;;4963464;28;20629;-72
2022/02/09 20:06:52;;;;;;;5.37;4.87;;;6.50;99.90;;;;;;4963040;28;20426;-72
2022/02/09 20:09:18;;;;;;;3.47;3.17;;;6.40;99.90;;;;;;4963012;28;20191;-72
2022/02/09 20:11:44;;;;;;;5.00;3.77;;;6.40;99.90;;;;;;4960141;28;20255;-72
2022/02/09 20:14:11;;;;;;;5.68;3.47;;;6.30;99.90;;;;;;4961429;28;20439;-72
2022/02/09 20:16:38;;;;;;;6.07;4.07;;;6.30;99.90;;;;;;4970114;28;20173;-71
2022/02/09 20:19:04;;;;;;;6.15;3.45;;;6.20;99.90;;;;;;4962173;28;20202;-72
2022/02/09 20:21:30;;;;;;;3.87;3.27;;;6.10;99.90;;;;;;4923034;28;1136446;-72
2022/02/09 20:23:57;;;;;;;3.60;3.22;;;6.10;99.90;;;;;;4962835;28;20247;-72
2022/02/09 20:26:24;;;;;;;4.63;3.28;;;6.00;99.90;;;;;;4964489;28;20197;-73
2022/02/09 20:29:00;;;;;;;6.60;4.25;;;6.10;99.90;;;;;;4965472;28;20199;-74
2022/02/09 20:31:31;;;;;;;6.43;4.78;;;6.00;99.90;;;;;;4963612;28;20209;-72
2022/02/09 20:34:04;;;;;;;5.47;3.55;;;6.00;99.90;;;;;;4964691;28;20194;-72
2022/02/09 20:36:32;;;;;;;2.75;2.55;;;5.90;99.90;;;;;;4963034;28;20192;-73
2022/02/09 20:39:00;;;;;;;6.30;3.63;;;5.90;99.90;;;;;;4961169;28;20192;-73
2022/02/09 20:41:26;;;;;;;3.30;3.00;;;5.90;99.90;;;;;;4958887;28;20219;-73
2022/02/09 20:46:26;;;;;;;3.55;3.10;;;5.80;99.90;;;;;;4967531;28;20570;-73
2022/02/09 20:48:52;;;;;;;3.88;3.45;;;5.80;99.90;;;;;;4954610;28;20611;-73
2022/02/09 20:51:17;;;;;;;2.27;2.10;;;5.80;99.90;;;;;;4954363;29;20167;-73
2022/02/09 20:53:43;;;;;;;4.53;3.60;;;5.70;99.90;;;;;;4953741;29;20172;-73
2022/02/09 20:56:09;;;;;;;3.40;2.70;;;5.60;99.90;;;;;;4955406;29;20247;-73
2022/02/09 20:58:37;;;;;;;2.80;2.60;;;5.60;99.90;;;;;;4954578;28;20526;-72
2022/02/09 21:01:08;;;;;;;4.97;3.60;;;5.50;99.90;;;;;;4954921;29;20200;-73
2022/02/09 21:11:18;;;;;;;4.30;4.00;;;5.40;99.90;;;;;;4954970;29;20259;-73
2022/02/09 21:16:49;;;;;;;10.80;4.75;;;5.40;99.90;;;;;;4954886;29;20176;-71
2022/02/09 21:50:18;;;;;;;3.50;3.20;;;4.80;99.90;;;;;;4957971;28;20201;-73
2022/02/09 21:54:56;;;;;;;4.50;4.00;;;4.80;99.90;;;;;;4970766;28;20576;-74
2022/02/09 22:19:17;;;;;;;3.90;3.35;;;4.70;99.90;;;;;;4977086;28;20179;-73
2022/02/09 22:22:01;;;;;;;4.60;3.85;;;4.70;99.90;;;;;;4976784;28;20192;-73
2022/02/09 22:27:39;;;;;;;5.97;3.45;;;4.70;99.90;;;;;;4977280;28;20243;-73
2022/02/09 22:56:40;;;;;;;3.45;2.75;;;4.40;99.90;;;;;;4976427;28;20187;-73
2022/02/09 22:59:14;;;;;;;5.53;3.70;;;4.30;99.90;;;;;;4975984;28;20230;-73
2022/02/09 23:01:48;;;;;;;4.70;4.25;;;4.40;99.90;;;;;;4976225;28;20171;-73
2022/02/09 23:09:59;;;;;;;4.82;3.58;;;4.30;99.90;;;;;;4975831;28;20188;-72
2022/02/09 23:55:56;;;;;;;6.18;4.20;;;3.70;99.90;;;;;;4975017;28;20227;-72
